Time;durP1;ratioP1;P1;durP2;ratioP2;P2;SDS_P1;SDS_P2;PMS_P1;PMS_P2;Temp;Humidity;BMP_temperature;BMP_pressure;BME280_temperature;BME280_humidity;BME280_pressure;Samples;Min_cycle;Max_cycle;Signal;HPM_P1;HPM_P2
2020/12/05 00:01:21;;;;;;;11.97;9.17;;;2.80;99.90;;;;;;5014316;28;20582;-75
2020/12/05 00:03:47;;;;;;;12.20;8.30;;;2.90;99.90;;;;;;5014226;28;20169;-75
2020/12/05 00:06:12;;;;;;;12.73;8.20;;;2.80;99.90;;;;;;5014458;28;20251;-78
2020/12/05 00:08:38;;;;;;;18.90;10.80;;;2.90;99.90;;;;;;5013139;28;20643;-77
2020/12/05 00:11:04;;;;;;;13.93;8.90;;;2.90;99.90;;;;;;5014322;28;20328;-77
2020/12/05 00:13:29;;;;;;;18.10;10.47;;;3.00;99.90;;;;;;5012855;28;20272;-76
2020/12/05 00:15:55;;;;;;;15.00;10.07;;;3.00;99.90;;;;;;5013971;28;20212;-76
2020/12/05 00:18:21;;;;;;;15.37;9.30;;;3.00;99.90;;;;;;5014161;28;20190;-78
2020/12/05 00:20:47;;;;;;;20.63;9.17;;;3.00;99.90;;;;;;5014166;28;20223;-77
2020/12/05 00:23:15;;;;;;;12.20;8.87;;;3.00;99.90;;;;;;5014321;28;20654;-77
2020/12/05 00:25:41;;;;;;;12.57;9.38;;;2.90;99.90;;;;;;5013611;28;20832;-76
2020/12/05 00:28:07;;;;;;;13.63;9.55;;;3.00;99.90;;;;;;5014002;28;20178;-77
2020/12/05 00:30:33;;;;;;;15.27;8.53;;;3.00;99.90;;;;;;5014054;28;20182;-76
2020/12/05 00:33:03;;;;;;;20.83;8.95;;;2.90;99.90;;;;;;5013975;28;20170;-76
2020/12/05 00:35:29;;;;;;;17.48;10.13;;;2.90;99.90;;;;;;5013508;28;20196;-76
2020/12/05 00:37:55;;;;;;;11.32;9.07;;;2.90;99.90;;;;;;5013758;28;20258;-77
2020/12/05 00:40:22;;;;;;;19.33;10.73;;;2.90;99.90;;;;;;5013909;28;20198;-77
2020/12/05 00:42:48;;;;;;;18.10;10.75;;;3.00;99.90;;;;;;5013901;28;20174;-77
2020/12/05 00:45:14;;;;;;;15.90;11.13;;;3.00;99.90;;;;;;5013417;28;20202;-77
2020/12/05 00:47:40;;;;;;;15.05;10.93;;;3.00;99.90;;;;;;5013725;28;20249;-77
2020/12/05 00:50:06;;;;;;;13.63;9.70;;;2.80;99.90;;;;;;5013739;28;20686;-76
2020/12/05 00:52:31;;;;;;;15.90;10.40;;;2.80;99.90;;;;;;5013792;28;20182;-77
2020/12/05 00:54:57;;;;;;;19.80;10.67;;;2.70;99.90;;;;;;5013287;28;20193;-77
2020/12/05 00:57:23;;;;;;;11.30;9.30;;;2.70;99.90;;;;;;5013714;28;20619;-78
2020/12/05 00:59:48;;;;;;;14.23;9.87;;;2.70;99.90;;;;;;5013435;28;20216;-77
2020/12/05 01:02:14;;;;;;;11.93;9.97;;;2.60;99.90;;;;;;5013512;28;20170;-76
2020/12/05 01:04:39;;;;;;;21.00;10.10;;;2.60;99.90;;;;;;5013244;28;20198;-76
2020/12/05 01:07:05;;;;;;;14.30;10.03;;;2.60;99.90;;;;;;5013624;28;20181;-77
2020/12/05 01:09:31;;;;;;;16.83;10.03;;;2.50;99.90;;;;;;5013443;28;20185;-77
2020/12/05 01:11:56;;;;;;;11.30;9.80;;;2.50;99.90;;;;;;5013169;28;20186;-76
2020/12/05 01:14:22;;;;;;;15.43;9.87;;;2.50;99.90;;;;;;5012624;28;20252;-76
2020/12/05 01:16:48;;;;;;;12.33;10.20;;;2.40;99.90;;;;;;5013437;28;20239;-77
2020/12/05 01:19:13;;;;;;;11.93;9.63;;;2.40;99.90;;;;;;5013350;28;20210;-77
2020/12/05 01:21:39;;;;;;;13.40;9.50;;;2.50;99.90;;;;;;5013411;28;20651;-77
2020/12/05 01:24:04;;;;;;;14.80;9.63;;;2.60;99.90;;;;;;5012938;28;20203;-75
2020/12/05 01:26:30;;;;;;;11.30;9.27;;;2.30;99.90;;;;;;5013297;28;20173;-75
2020/12/05 01:28:56;;;;;;;10.17;8.30;;;2.20;99.90;;;;;;5013426;28;20639;-76
2020/12/05 01:31:21;;;;;;;14.23;7.80;;;2.20;99.90;;;;;;5013598;28;20218;-77
2020/12/05 01:33:47;;;;;;;12.20;7.60;;;2.10;99.90;;;;;;5013176;28;20201;-76
2020/12/05 01:36:13;;;;;;;16.93;7.73;;;2.00;99.90;;;;;;5012896;28;20272;-77
2020/12/05 01:38:38;;;;;;;11.77;7.70;;;2.00;99.90;;;;;;5013353;28;20210;-77
2020/12/05 01:41:05;;;;;;;13.23;8.40;;;2.00;99.90;;;;;;5013347;28;20288;-76
2020/12/05 01:43:32;;;;;;;10.45;8.00;;;2.00;99.90;;;;;;5013225;28;20173;-76
2020/12/05 01:46:00;;;;;;;10.88;8.05;;;2.00;99.90;;;;;;5012526;28;20205;-76
2020/12/05 01:48:26;;;;;;;13.70;9.13;;;2.00;99.90;;;;;;5013139;28;20541;-77
2020/12/05 01:50:53;;;;;;;14.52;9.50;;;2.00;99.90;;;;;;5013112;28;20291;-77
2020/12/05 01:53:19;;;;;;;15.77;9.63;;;2.00;99.90;;;;;;5013058;28;20203;-76
2020/12/05 01:55:48;;;;;;;10.53;9.43;;;2.00;99.90;;;;;;5012721;28;20276;-77
2020/12/05 01:58:14;;;;;;;15.90;11.07;;;2.00;99.90;;;;;;5013109;28;20179;-78
2020/12/05 02:00:41;;;;;;;13.43;10.70;;;2.10;99.90;;;;;;5012990;28;20210;-78
2020/12/05 02:03:07;;;;;;;17.58;11.48;;;2.10;99.90;;;;;;5013101;28;20220;-77
2020/12/05 02:05:51;;;;;;;16.95;11.93;;;2.10;99.90;;;;;;5012566;28;20205;-77
2020/12/05 02:08:32;;;;;;;15.68;12.30;;;2.20;99.90;;;;;;5012857;28;20206;-78
2020/12/05 02:11:00;;;;;;;17.48;11.50;;;2.20;99.90;;;;;;5013011;28;20670;-78
2020/12/05 02:13:32;;;;;;;12.80;10.85;;;2.20;99.90;;;;;;5012880;28;20187;-75
2020/12/05 02:15:59;;;;;;;14.93;11.75;;;2.20;99.90;;;;;;5012529;28;20273;-77
2020/12/05 02:18:25;;;;;;;18.15;12.23;;;2.20;99.90;;;;;;5012647;28;20193;-78
2020/12/05 02:20:53;;;;;;;14.38;11.82;;;2.30;99.90;;;;;;5012848;28;20667;-78
2020/12/05 02:23:20;;;;;;;14.90;11.70;;;2.30;99.90;;;;;;5012803;28;20170;-78
2020/12/05 02:25:50;;;;;;;16.40;12.55;;;2.30;99.90;;;;;;5013268;28;20193;-78
2020/12/05 02:28:19;;;;;;;16.05;12.18;;;2.30;99.90;;;;;;5016379;28;20714;-79
2020/12/05 02:30:46;;;;;;;17.25;11.30;;;2.30;99.90;;;;;;5016126;28;20179;-78
2020/12/05 02:33:12;;;;;;;16.33;12.20;;;2.30;99.90;;;;;;5016192;28;20196;-78
2020/12/05 02:35:37;;;;;;;17.37;13.00;;;2.30;99.90;;;;;;5015863;28;20198;-78
2020/12/05 02:38:32;;;;;;;16.87;11.77;;;2.30;99.90;;;;;;5016093;28;20177;-78
2020/12/05 02:40:57;;;;;;;15.80;12.18;;;2.30;99.90;;;;;;5014550;28;20206;-78
2020/12/05 02:43:24;;;;;;;18.67;13.00;;;2.30;99.90;;;;;;5016066;28;20208;-76
2020/12/05 02:45:51;;;;;;;15.98;11.88;;;2.30;99.90;;;;;;5015579;28;20213;-78
2020/12/05 02:48:17;;;;;;;20.73;13.07;;;2.30;99.90;;;;;;5014965;28;20174;-78
2020/12/05 02:50:43;;;;;;;15.33;12.80;;;2.30;99.90;;;;;;5015993;28;20186;-77
2020/12/05 02:53:08;;;;;;;15.00;12.67;;;2.40;99.90;;;;;;5015836;28;20182;-78
2020/12/05 02:55:34;;;;;;;17.13;12.20;;;2.30;99.90;;;;;;5015684;28;20677;-76
2020/12/05 02:58:00;;;;;;;18.20;13.63;;;2.30;99.90;;;;;;5015916;28;20638;-77
2020/12/05 03:00:25;;;;;;;21.63;12.67;;;2.30;99.90;;;;;;5015596;28;20207;-76
2020/12/05 03:02:51;;;;;;;17.07;12.13;;;2.20;99.90;;;;;;5015598;28;20591;-79
2020/12/05 03:05:18;;;;;;;17.05;10.45;;;2.10;99.90;;;;;;5015227;28;20204;-79
2020/12/05 03:07:44;;;;;;;17.15;11.80;;;2.00;99.90;;;;;;5015722;28;20645;-76
2020/12/05 03:10:10;;;;;;;13.48;10.77;;;2.00;99.90;;;;;;5015700;28;20182;-78
2020/12/05 03:12:36;;;;;;;16.27;11.57;;;1.90;99.90;;;;;;5015440;28;20188;-76
2020/12/05 03:15:03;;;;;;;15.30;10.82;;;1.90;99.90;;;;;;5014840;28;20292;-78
2020/12/05 03:17:29;;;;;;;14.48;11.00;;;1.90;99.90;;;;;;5015364;28;20181;-78
2020/12/05 03:19:54;;;;;;;14.10;10.93;;;1.90;99.90;;;;;;5015250;28;20201;-78
2020/12/05 03:22:20;;;;;;;14.60;10.80;;;1.80;99.90;;;;;;5015295;28;20662;-78
2020/12/05 03:24:46;;;;;;;18.80;11.70;;;1.80;99.90;;;;;;5014788;28;20200;-79
2020/12/05 03:27:11;;;;;;;17.40;12.50;;;1.80;99.90;;;;;;5013929;28;20658;-79
2020/12/05 03:29:39;;;;;;;18.60;12.30;;;1.80;99.90;;;;;;5015124;28;20211;-78
2020/12/05 03:32:17;;;;;;;15.60;13.00;;;1.80;99.90;;;;;;5015090;28;20173;-78
2020/12/05 03:34:43;;;;;;;19.67;14.18;;;1.70;99.90;;;;;;5014683;28;20619;-78
2020/12/05 03:37:09;;;;;;;17.23;13.27;;;1.70;99.90;;;;;;5014823;28;20188;-78
2020/12/05 03:39:35;;;;;;;16.38;13.18;;;1.70;99.90;;;;;;5014852;28;20566;-78
2020/12/05 03:42:01;;;;;;;14.85;11.45;;;1.70;99.90;;;;;;5014974;28;20265;-78
2020/12/05 03:44:27;;;;;;;19.90;12.90;;;1.60;99.90;;;;;;5029687;28;20197;-79
2020/12/05 03:46:52;;;;;;;14.93;11.83;;;1.50;99.90;;;;;;5014891;28;20655;-78
2020/12/05 03:49:18;;;;;;;15.73;11.40;;;1.50;99.90;;;;;;5014909;28;20619;-78
2020/12/05 03:51:44;;;;;;;18.15;11.80;;;1.40;99.90;;;;;;5014694;28;20256;-78
2020/12/05 03:54:10;;;;;;;17.03;11.50;;;1.40;99.90;;;;;;5014371;28;20203;-79
2020/12/05 03:56:35;;;;;;;12.40;10.73;;;1.30;99.90;;;;;;5014671;28;20207;-79
2020/12/05 03:59:01;;;;;;;15.93;12.10;;;1.30;99.90;;;;;;5014588;28;20173;-78
2020/12/05 04:01:26;;;;;;;14.87;11.70;;;1.30;99.90;;;;;;5014503;28;20176;-78
2020/12/05 04:03:52;;;;;;;18.87;13.60;;;1.30;99.90;;;;;;5014815;28;20634;-78
2020/12/05 04:06:18;;;;;;;18.93;14.43;;;1.30;99.90;;;;;;5015529;28;20687;-79
2020/12/05 04:08:43;;;;;;;17.03;12.50;;;1.30;99.90;;;;;;5014586;28;20184;-78
2020/12/05 04:11:09;;;;;;;19.20;15.10;;;1.40;99.90;;;;;;5014479;28;20177;-78
2020/12/05 04:13:35;;;;;;;21.27;13.13;;;1.40;99.90;;;;;;5014311;28;20416;-78
2020/12/05 04:16:01;;;;;;;15.33;11.87;;;1.40;99.90;;;;;;5014214;28;20195;-78
2020/12/05 04:18:27;;;;;;;13.90;11.10;;;1.30;99.90;;;;;;5014199;28;20501;-79
2020/12/05 04:20:53;;;;;;;16.23;11.90;;;1.20;99.90;;;;;;4996645;28;20213;-79
2020/12/05 04:23:18;;;;;;;14.90;11.67;;;1.20;99.90;;;;;;5014034;28;20411;-78
2020/12/05 04:25:44;;;;;;;16.90;11.10;;;1.10;99.90;;;;;;5013728;28;20188;-78
2020/12/05 04:28:10;;;;;;;13.70;11.73;;;1.10;99.90;;;;;;5014258;28;20227;-79
2020/12/05 04:30:35;;;;;;;17.67;11.90;;;1.00;99.90;;;;;;5014077;28;20217;-77
2020/12/05 04:33:01;;;;;;;14.10;11.10;;;1.00;99.90;;;;;;5014234;28;20172;-78
2020/12/05 04:35:27;;;;;;;14.50;12.07;;;1.00;99.90;;;;;;5013573;28;20206;-79
2020/12/05 04:37:52;;;;;;;18.70;12.93;;;1.00;99.90;;;;;;5014075;28;20267;-79
2020/12/05 04:40:18;;;;;;;15.83;12.53;;;1.00;99.90;;;;;;5013830;28;20203;-78
2020/12/05 04:42:48;;;;;;;25.17;13.57;;;1.00;99.90;;;;;;5013915;28;20168;-79
2020/12/05 04:45:15;;;;;;;18.52;11.95;;;1.00;99.90;;;;;;5013292;28;20453;-78
2020/12/05 04:47:43;;;;;;;20.00;13.57;;;0.90;99.90;;;;;;5013204;28;20168;-79
2020/12/05 04:50:10;;;;;;;21.27;13.23;;;0.90;99.90;;;;;;5013842;28;20179;-78
2020/12/05 04:52:48;;;;;;;18.77;13.20;;;0.90;99.90;;;;;;5013985;28;20173;-78
2020/12/05 04:55:15;;;;;;;19.60;13.15;;;0.90;99.90;;;;;;5013406;28;20682;-78
2020/12/05 04:57:46;;;;;;;17.20;13.35;;;0.90;99.90;;;;;;5013927;28;20175;-78
2020/12/05 05:00:12;;;;;;;17.77;13.23;;;0.90;99.90;;;;;;5013910;28;20222;-78
2020/12/05 05:02:42;;;;;;;21.40;13.98;;;0.90;99.90;;;;;;5013566;28;20178;-79
2020/12/05 05:05:13;;;;;;;20.42;12.65;;;0.80;99.90;;;;;;5013368;28;20249;-78
2020/12/05 05:07:54;;;;;;;18.83;12.43;;;0.80;99.90;;;;;;5013495;28;20631;-79
2020/12/05 05:10:31;;;;;;;14.73;11.38;;;0.70;99.90;;;;;;5013675;28;20564;-78
2020/12/05 05:13:15;;;;;;;18.55;13.10;;;0.70;99.90;;;;;;5012319;28;20183;-79
2020/12/05 05:15:41;;;;;;;18.38;12.48;;;0.60;99.90;;;;;;5013048;28;20194;-78
2020/12/05 05:18:08;;;;;;;15.63;12.85;;;0.60;99.90;;;;;;5013372;28;20220;-79
2020/12/05 05:20:45;;;;;;;17.63;12.30;;;0.60;99.90;;;;;;5013475;28;20609;-78
2020/12/05 05:23:15;;;;;;;14.18;11.43;;;0.60;99.90;;;;;;5013593;28;20159;-79
2020/12/05 05:25:58;;;;;;;17.38;11.15;;;0.70;99.90;;;;;;5013078;28;20196;-78
2020/12/05 05:28:28;;;;;;;16.27;11.70;;;0.70;99.90;;;;;;5013328;28;20182;-79
2020/12/05 05:30:55;;;;;;;19.58;12.32;;;0.70;99.90;;;;;;5012157;28;20220;-79
2020/12/05 05:33:22;;;;;;;16.02;10.90;;;0.70;99.90;;;;;;5013352;28;20181;-78
2020/12/05 05:35:48;;;;;;;21.42;11.35;;;0.70;99.90;;;;;;5012901;28;20229;-78
2020/12/05 05:38:22;;;;;;;16.70;11.73;;;0.60;99.90;;;;;;5012021;28;20218;-78
2020/12/05 05:40:49;;;;;;;13.70;11.45;;;0.60;99.90;;;;;;5013241;28;20955;-79
2020/12/05 05:43:18;;;;;;;17.20;12.75;;;0.60;99.90;;;;;;5013111;28;20176;-79
2020/12/05 05:45:45;;;;;;;16.60;12.35;;;0.60;99.90;;;;;;5012959;28;20202;-79
2020/12/05 05:48:11;;;;;;;16.70;12.43;;;0.60;99.90;;;;;;5011906;28;20182;-78
2020/12/05 05:50:37;;;;;;;17.52;12.80;;;0.60;99.90;;;;;;5013143;28;20179;-79
2020/12/05 05:53:07;;;;;;;18.75;13.77;;;0.60;99.90;;;;;;5013313;28;20662;-79
2020/12/05 05:55:48;;;;;;;17.73;13.40;;;0.60;99.90;;;;;;5012887;28;20727;-77
2020/12/05 05:58:18;;;;;;;20.40;13.60;;;0.60;99.90;;;;;;5013061;28;20225;-78
2020/12/05 06:00:49;;;;;;;20.85;13.75;;;0.60;99.90;;;;;;5016857;28;20218;-79
2020/12/05 06:03:22;;;;;;;18.35;13.25;;;0.60;99.90;;;;;;5016883;28;20174;-79
2020/12/05 06:05:51;;;;;;;16.95;13.05;;;0.50;99.90;;;;;;5016396;28;20188;-77
2020/12/05 06:08:24;;;;;;;15.48;11.48;;;0.50;99.90;;;;;;5016622;28;20178;-78
2020/12/05 06:11:00;;;;;;;16.88;11.57;;;0.50;99.90;;;;;;5016843;28;20180;-77
2020/12/05 06:13:30;;;;;;;19.95;13.02;;;0.50;99.90;;;;;;5016673;28;20171;-77
2020/12/05 06:15:57;;;;;;;17.95;13.15;;;0.50;99.90;;;;;;5016228;28;20206;-78
2020/12/05 06:18:23;;;;;;;20.83;14.38;;;0.50;99.90;;;;;;5016342;28;20258;-77
2020/12/05 06:20:49;;;;;;;20.42;13.68;;;0.60;99.90;;;;;;5016399;28;20211;-77
2020/12/05 06:23:43;;;;;;;15.47;13.63;;;0.60;99.90;;;;;;5016469;28;20175;-78
2020/12/05 06:26:17;;;;;;;17.52;12.98;;;0.70;99.90;;;;;;5016258;28;20772;-80
2020/12/05 06:28:44;;;;;;;16.38;13.02;;;0.80;99.90;;;;;;5016432;28;20685;-78
2020/12/05 06:31:10;;;;;;;23.92;13.50;;;0.80;99.90;;;;;;5016408;28;20704;-78
2020/12/05 06:33:44;;;;;;;23.03;15.40;;;0.90;99.90;;;;;;5016085;28;20180;-78
2020/12/05 06:36:40;;;;;;;19.67;14.68;;;0.90;99.90;;;;;;5016692;28;20177;-78
2020/12/05 06:39:05;;;;;;;22.30;15.75;;;1.10;99.90;;;;;;5007720;28;20197;-78
2020/12/05 06:41:33;;;;;;;30.50;14.50;;;1.10;99.90;;;;;;5016160;28;20201;-78
2020/12/05 06:44:23;;;;;;;18.92;14.38;;;1.20;99.90;;;;;;5014655;28;20172;-77
2020/12/05 06:46:53;;;;;;;21.25;15.57;;;1.20;99.90;;;;;;5010942;28;20189;-78
2020/12/05 06:49:39;;;;;;;24.38;15.23;;;1.30;99.90;;;;;;5016036;28;20191;-78
2020/12/05 06:52:40;;;;;;;21.20;15.20;;;1.30;99.90;;;;;;5015785;28;20200;-77
2020/12/05 06:55:12;;;;;;;22.58;16.48;;;1.40;99.90;;;;;;4974318;28;20205;-78
2020/12/05 06:57:40;;;;;;;20.73;16.02;;;1.50;99.90;;;;;;5009268;28;20196;-78
2020/12/05 07:00:23;;;;;;;18.70;14.77;;;1.60;99.90;;;;;;5015858;28;20526;-78
2020/12/05 07:02:52;;;;;;;25.40;15.63;;;1.70;99.90;;;;;;5015950;28;20208;-79
2020/12/05 07:05:20;;;;;;;21.88;14.90;;;1.80;99.90;;;;;;5015354;28;20606;-78
2020/12/05 07:07:54;;;;;;;20.52;15.55;;;1.90;99.90;;;;;;5015741;28;20577;-78
2020/12/05 07:11:01;;;;;;;23.25;16.38;;;1.90;99.90;;;;;;5014818;28;20200;-79
2020/12/05 07:13:28;;;;;;;20.55;15.75;;;2.00;99.90;;;;;;4974452;28;20182;-79
2020/12/05 07:16:26;;;;;;;26.65;16.27;;;2.10;99.90;;;;;;5008076;28;20216;-79
2020/12/05 07:18:54;;;;;;;24.45;15.25;;;2.10;99.90;;;;;;5015243;28;20177;-78
2020/12/05 07:21:21;;;;;;;20.55;15.18;;;2.10;99.90;;;;;;5015254;28;20206;-79
2020/12/05 07:23:47;;;;;;;21.00;15.20;;;2.00;99.90;;;;;;5015368;28;20595;-78
2020/12/05 07:26:14;;;;;;;26.55;14.52;;;2.00;99.90;;;;;;5015291;28;20260;-79
2020/12/05 07:28:45;;;;;;;20.23;13.45;;;2.00;99.90;;;;;;5015157;28;20175;-79
2020/12/05 07:31:11;;;;;;;17.85;13.45;;;1.90;99.90;;;;;;5015426;28;20173;-79
2020/12/05 07:33:38;;;;;;;16.42;12.32;;;1.90;99.90;;;;;;5014843;28;20185;-79
2020/12/05 07:36:05;;;;;;;19.65;13.80;;;1.90;99.90;;;;;;5015046;28;20245;-79
2020/12/05 07:38:35;;;;;;;17.50;14.02;;;1.80;99.90;;;;;;5014932;28;20321;-79
2020/12/05 07:41:12;;;;;;;20.20;14.68;;;1.90;99.90;;;;;;5014912;28;20226;-79
2020/12/05 07:43:38;;;;;;;20.67;12.88;;;1.90;99.90;;;;;;5014620;28;20244;-78
2020/12/05 07:46:06;;;;;;;19.98;15.02;;;1.90;99.90;;;;;;5014832;28;20577;-79
2020/12/05 07:48:33;;;;;;;18.83;12.90;;;2.00;99.90;;;;;;5015121;28;20197;-78
2020/12/05 07:50:59;;;;;;;21.27;14.52;;;2.00;99.90;;;;;;5014694;28;20571;-79
2020/12/05 07:53:32;;;;;;;17.70;13.50;;;2.10;99.90;;;;;;5014688;28;20178;-79
2020/12/05 07:56:11;;;;;;;17.00;12.05;;;2.20;99.90;;;;;;5014494;28;20192;-78
2020/12/05 07:59:03;;;;;;;17.35;12.65;;;2.20;99.90;;;;;;5014833;28;20184;-78
2020/12/05 08:01:48;;;;;;;17.25;12.15;;;2.30;99.90;;;;;;5014448;28;20253;-79
2020/12/05 08:04:30;;;;;;;17.27;11.75;;;2.20;99.90;;;;;;5012843;28;20289;-78
2020/12/05 08:07:25;;;;;;;17.65;13.38;;;2.20;99.90;;;;;;5014469;28;20202;-79
2020/12/05 08:09:52;;;;;;;16.75;12.32;;;2.20;99.90;;;;;;5014647;28;20181;-79
2020/12/05 08:12:43;;;;;;;14.57;10.98;;;2.20;99.90;;;;;;5014459;28;20173;-79
2020/12/05 08:15:18;;;;;;;18.60;12.27;;;2.10;99.90;;;;;;4992926;28;20334;-79
2020/12/05 08:17:45;;;;;;;15.35;11.55;;;2.10;99.90;;;;;;5014318;28;20173;-79
2020/12/05 08:20:11;;;;;;;14.68;9.95;;;2.10;99.90;;;;;;5014196;28;20587;-79
2020/12/05 08:22:37;;;;;;;14.48;10.52;;;2.10;99.90;;;;;;5012936;28;20708;-79
2020/12/05 08:25:05;;;;;;;12.73;9.80;;;2.20;99.90;;;;;;5014074;28;20292;-79
2020/12/05 08:27:31;;;;;;;14.32;10.20;;;2.20;99.90;;;;;;5014506;28;20450;-78
2020/12/05 08:29:58;;;;;;;15.40;10.88;;;2.30;99.90;;;;;;5014193;28;20230;-79
2020/12/05 08:32:25;;;;;;;15.18;10.60;;;2.40;99.90;;;;;;5013953;28;20192;-79
2020/12/05 08:35:01;;;;;;;20.23;11.82;;;2.40;99.90;;;;;;5013714;28;20566;-78
2020/12/05 08:37:26;;;;;;;12.98;9.68;;;2.40;99.90;;;;;;5014233;28;20587;-78
2020/12/05 08:39:54;;;;;;;13.53;10.40;;;2.40;99.90;;;;;;5014096;28;20282;-78
2020/12/05 08:42:19;;;;;;;13.18;10.20;;;2.50;99.90;;;;;;5014111;28;20169;-78
2020/12/05 08:44:46;;;;;;;12.53;9.03;;;2.50;99.90;;;;;;5013632;28;20212;-78
2020/12/05 08:47:12;;;;;;;14.10;9.25;;;2.50;99.90;;;;;;5013787;28;20169;-78
2020/12/05 08:49:43;;;;;;;12.30;9.23;;;2.60;99.90;;;;;;5013818;28;20196;-77
2020/12/05 08:52:09;;;;;;;12.80;9.85;;;2.60;99.90;;;;;;5013747;28;20214;-78
2020/12/05 08:54:50;;;;;;;13.73;9.38;;;2.60;99.90;;;;;;5013558;28;20226;-78
2020/12/05 08:57:16;;;;;;;15.23;9.80;;;2.70;99.90;;;;;;5013848;28;20185;-78
2020/12/05 08:59:43;;;;;;;17.20;11.15;;;2.80;99.90;;;;;;5013593;28;20749;-78
2020/12/05 09:02:10;;;;;;;18.70;12.45;;;2.80;99.90;;;;;;5013806;28;20171;-77
2020/12/05 09:04:37;;;;;;;14.52;11.43;;;2.90;99.90;;;;;;5013501;28;21079;-78
2020/12/05 09:07:06;;;;;;;13.23;9.50;;;3.00;99.90;;;;;;5013615;28;20176;-77
2020/12/05 09:09:32;;;;;;;13.82;9.60;;;3.10;99.90;;;;;;5013572;28;20761;-78
2020/12/05 09:12:12;;;;;;;10.53;7.73;;;3.20;99.90;;;;;;5012450;28;20206;-77
2020/12/05 09:14:38;;;;;;;14.70;8.75;;;3.30;99.90;;;;;;5013321;28;20205;-77
2020/12/05 09:17:26;;;;;;;12.02;7.90;;;3.30;99.90;;;;;;5012190;28;20268;-77
2020/12/05 09:19:58;;;;;;;10.45;5.95;;;3.50;99.90;;;;;;5013217;28;20299;-78
2020/12/05 09:22:33;;;;;;;8.95;6.57;;;3.60;99.90;;;;;;5013362;28;20506;-77
2020/12/05 09:24:59;;;;;;;9.23;6.60;;;3.70;99.90;;;;;;5012980;28;20282;-77
2020/12/05 09:27:41;;;;;;;7.70;4.55;;;3.80;99.90;;;;;;5013267;28;20228;-78
2020/12/05 09:30:12;;;;;;;10.75;5.75;;;4.10;99.90;;;;;;5013707;28;20170;-77
2020/12/05 09:32:42;;;;;;;5.55;3.13;;;4.20;99.90;;;;;;5013590;28;20580;-78
2020/12/05 09:35:09;;;;;;;6.60;4.40;;;4.30;99.90;;;;;;5016080;28;20205;-75
2020/12/05 09:37:35;;;;;;;4.68;3.47;;;4.40;99.90;;;;;;5017155;28;20175;-75
2020/12/05 09:40:01;;;;;;;4.20;3.27;;;4.50;99.90;;;;;;5017605;28;20224;-75
2020/12/05 09:42:26;;;;;;;5.63;2.93;;;4.80;99.90;;;;;;5017186;28;20253;-75
2020/12/05 09:44:52;;;;;;;6.20;3.40;;;4.90;99.90;;;;;;5016875;28;20292;-75
2020/12/05 09:47:18;;;;;;;5.55;3.67;;;5.00;99.90;;;;;;5017287;28;20240;-76
2020/12/05 09:49:44;;;;;;;3.15;2.83;;;5.00;99.90;;;;;;5017165;28;20564;-78
2020/12/05 09:52:10;;;;;;;2.83;2.20;;;5.10;99.90;;;;;;5017173;28;20229;-77
2020/12/05 09:54:36;;;;;;;4.43;2.03;;;5.20;99.90;;;;;;5016793;28;20230;-76
2020/12/05 09:57:05;;;;;;;4.28;2.85;;;5.40;99.90;;;;;;5017087;28;20188;-77
2020/12/05 09:59:31;;;;;;;1.95;1.70;;;5.60;99.90;;;;;;5016947;28;20175;-76
2020/12/05 10:01:56;;;;;;;2.20;2.00;;;5.70;99.90;;;;;;5016844;28;20178;-77
2020/12/05 10:04:23;;;;;;;2.27;1.77;;;5.80;99.90;;;;;;5015971;28;20206;-77
2020/12/05 10:06:49;;;;;;;2.50;1.40;;;6.00;99.90;;;;;;5016928;28;20181;-77
2020/12/05 10:09:15;;;;;;;1.60;1.43;;;6.00;99.90;;;;;;5016668;28;20189;-79
2020/12/05 10:11:41;;;;;;;2.30;1.67;;;6.10;99.90;;;;;;5016658;28;20178;-81
2020/12/05 10:14:06;;;;;;;2.50;1.90;;;6.60;99.90;;;;;;5015984;28;20237;-77
2020/12/05 10:16:33;;;;;;;2.07;1.23;;;6.60;99.90;;;;;;5016999;28;20817;-77
2020/12/05 10:19:00;;;;;;;3.97;1.30;;;6.60;99.90;;;;;;5016728;28;20201;-77
2020/12/05 10:21:25;;;;;;;1.63;1.52;;;6.60;99.90;;;;;;5012254;28;20292;-79
2020/12/05 10:23:51;;;;;;;1.80;1.30;;;6.60;99.90;;;;;;5010394;28;20878;-77
2020/12/05 10:26:16;;;;;;;1.53;1.10;;;6.80;99.90;;;;;;5011501;28;20175;-78
2020/12/05 10:28:42;;;;;;;2.13;1.30;;;7.00;99.90;;;;;;5011146;28;20329;-78
2020/12/05 10:31:08;;;;;;;3.13;1.20;;;7.20;99.90;;;;;;5011585;28;20178;-78
2020/12/05 10:33:33;;;;;;;1.27;1.10;;;7.00;99.90;;;;;;5011049;28;20194;-78
2020/12/05 10:35:59;;;;;;;1.13;1.00;;;7.10;99.90;;;;;;5010532;28;20218;-78
2020/12/05 10:38:25;;;;;;;1.70;1.60;;;7.30;99.90;;;;;;5011539;28;20544;-77
2020/12/05 10:40:50;;;;;;;3.13;2.50;;;7.20;99.90;;;;;;5011006;28;20210;-77
2020/12/05 10:43:16;;;;;;;1.60;1.50;;;7.40;99.90;;;;;;5010418;28;20186;-78
2020/12/05 10:45:41;;;;;;;3.20;1.33;;;7.50;99.90;;;;;;5009564;28;20211;-77
2020/12/05 10:48:07;;;;;;;1.30;1.20;;;7.40;99.90;;;;;;5010427;28;20181;-77
2020/12/05 10:50:33;;;;;;;2.00;1.10;;;7.60;99.90;;;;;;5010271;28;20216;-78
2020/12/05 10:52:58;;;;;;;1.73;1.07;;;7.60;99.90;;;;;;5010689;28;20849;-76
2020/12/05 10:55:24;;;;;;;1.67;1.33;;;7.80;99.90;;;;;;5010671;28;20197;-77
2020/12/05 10:57:50;;;;;;;1.63;1.33;;;7.70;99.90;;;;;;5009941;28;20225;-77
2020/12/05 11:00:15;;;;;;;2.20;1.20;;;7.60;99.90;;;;;;5010550;28;20293;-78
2020/12/05 11:02:41;;;;;;;2.40;1.63;;;7.80;99.90;;;;;;5010668;28;20815;-77
2020/12/05 11:05:07;;;;;;;2.70;1.77;;;7.90;99.90;;;;;;5009349;28;20202;-78
2020/12/05 11:07:32;;;;;;;1.37;1.27;;;8.00;99.90;;;;;;5010667;28;20581;-77
2020/12/05 11:09:58;;;;;;;0.90;0.73;;;8.20;99.90;;;;;;5011179;28;20425;-76
2020/12/05 11:12:24;;;;;;;1.80;1.17;;;8.30;99.90;;;;;;5009805;28;20194;-77
2020/12/05 11:14:49;;;;;;;1.10;1.00;;;8.30;99.90;;;;;;5010484;28;20207;-77
2020/12/05 11:17:15;;;;;;;1.30;1.20;;;8.50;99.90;;;;;;5011064;28;20194;-76
2020/12/05 11:19:40;;;;;;;1.00;0.90;;;8.60;99.90;;;;;;5009812;28;20289;-77
2020/12/05 11:22:06;;;;;;;1.17;0.83;;;8.80;99.90;;;;;;5009779;28;20218;-78
2020/12/05 11:24:32;;;;;;;2.30;0.80;;;8.70;99.90;;;;;;5009051;28;20198;-77
2020/12/05 11:26:57;;;;;;;1.20;0.90;;;9.10;99.90;;;;;;5010745;28;20186;-76
2020/12/05 11:29:23;;;;;;;1.20;1.03;;;9.30;99.90;;;;;;5009572;28;20647;-77
2020/12/05 11:31:49;;;;;;;0.80;0.60;;;9.30;99.90;;;;;;5010702;28;20191;-77
2020/12/05 11:34:14;;;;;;;1.10;0.90;;;9.00;99.90;;;;;;5009412;28;20907;-77
2020/12/05 11:36:44;;;;;;;1.60;1.00;;;9.40;99.90;;;;;;5009453;28;20651;-77
2020/12/05 11:39:10;;;;;;;0.90;0.70;;;9.40;99.90;;;;;;5014395;28;20554;-77
2020/12/05 11:41:36;;;;;;;1.90;0.90;;;9.10;99.90;;;;;;5015826;28;20207;-77
2020/12/05 11:44:03;;;;;;;1.17;0.80;;;9.20;99.90;;;;;;5015119;28;20205;-76
2020/12/05 11:46:29;;;;;;;1.40;0.98;;;9.40;99.90;;;;;;5015948;28;20195;-77
2020/12/05 11:48:55;;;;;;;2.05;0.90;;;9.50;99.90;;;;;;5015336;28;20186;-77
2020/12/05 11:51:25;;;;;;;1.17;0.93;;;9.40;99.90;;;;;;5014942;28;20536;-76
2020/12/05 11:53:51;;;;;;;1.45;1.15;;;9.40;99.90;;;;;;5014331;28;20552;-76
2020/12/05 11:56:17;;;;;;;1.97;0.80;;;9.70;99.90;;;;;;5013466;28;20610;-76
2020/12/05 11:58:43;;;;;;;1.87;0.93;;;9.70;99.90;;;;;;5014151;28;20409;-77
2020/12/05 12:01:08;;;;;;;2.10;1.00;;;9.70;99.90;;;;;;5013579;28;20458;-76
2020/12/05 12:03:34;;;;;;;2.00;0.90;;;9.90;99.90;;;;;;5014584;28;20171;-76
2020/12/05 12:06:00;;;;;;;2.07;1.10;;;10.00;99.90;;;;;;5014335;28;20191;-77
2020/12/05 12:08:26;;;;;;;1.33;0.85;;;10.10;99.90;;;;;;5014389;28;20438;-77
2020/12/05 12:10:52;;;;;;;1.13;0.90;;;9.90;99.90;;;;;;5014274;28;20214;-77
2020/12/05 12:13:17;;;;;;;1.97;0.90;;;10.10;99.90;;;;;;5014880;28;20182;-76
2020/12/05 12:15:44;;;;;;;1.40;0.97;;;10.10;99.90;;;;;;5014006;28;20779;-76
2020/12/05 12:18:09;;;;;;;1.40;0.97;;;10.20;99.90;;;;;;5014270;28;20209;-76
2020/12/05 12:20:35;;;;;;;1.40;1.30;;;10.30;99.90;;;;;;5014115;28;20465;-77
2020/12/05 12:23:00;;;;;;;1.63;1.03;;;10.20;99.90;;;;;;5013972;28;20202;-76
2020/12/05 12:25:26;;;;;;;2.93;1.87;;;10.30;99.90;;;;;;5012461;28;20194;-76
2020/12/05 12:27:52;;;;;;;18.60;12.13;;;10.50;99.90;;;;;;5014200;28;20713;-77
2020/12/05 12:30:18;;;;;;;5.90;5.30;;;10.50;99.90;;;;;;5014020;28;20535;-77
2020/12/05 12:32:43;;;;;;;4.20;1.20;;;10.70;99.90;;;;;;5014128;28;20515;-76
2020/12/05 12:35:10;;;;;;;1.53;0.87;;;10.60;99.90;;;;;;5013183;28;20508;-76
2020/12/05 12:37:36;;;;;;;1.40;1.10;;;10.50;99.90;;;;;;5014039;28;20185;-76
2020/12/05 12:40:02;;;;;;;3.40;1.13;;;10.50;99.90;;;;;;5014309;28;20206;-76
2020/12/05 12:42:28;;;;;;;2.08;1.10;;;10.60;99.90;;;;;;5014161;28;20186;-76
2020/12/05 12:44:57;;;;;;;0.93;0.83;;;10.50;99.90;;;;;;5013237;28;20240;-76
2020/12/05 12:49:58;;;;;;;5.07;3.17;;;10.70;99.90;;;;;;5013834;28;20265;-77
2020/12/05 12:52:23;;;;;;;4.25;2.70;;;10.50;99.90;;;;;;5013771;28;20237;-76